ENTC/TOS METAR and TAF weather

Enter ICAO airport designator
Station Type Date Time Source
ENTC METAR 2020/02/21 15:20 UTC NOAA

ENTC 211520Z 19020KT 9999 FEW062 SCT120 03/M04 Q0971 NOSIG RMK WIND 2600FT 17042G55KT


Station Type Date Time Source
ENTC Decoded METAR 2020/02/21 15:20 UTC NOAA

Tromso / Langnes, Norway (ENTC) 69-41N 018-55E 10M
Feb 21, 2020 - 10:20 AM EST / 2020.02.21 1520 UTC
Wind: from the S (190 degrees) at 23 MPH (20 KT):0
Visibility: greater than 7 mile(s):0
Sky conditions: partly cloudy
Temperature: 37 F (3 C)
Dew Point: 24 F (-4 C)
Relative Humidity: 59%
Pressure (altimeter): 28.67 in. Hg (0971 hPa)
ob: ENTC 211520Z 19020KT 9999 FEW062 SCT120 03/M04 Q0971 NOSIG RMK WIND 2600FT 17042G55KT
cycle: 15

Station Type Date Time Source
ENTC TAF 2020/02/21 12:57 UTC NOAA

TAF ENTC 211100Z 2112/2212 19018KT 9999 BKN040
TEMPO 2115/2212 3000 SHRASN VV012

Example: see airport list